sensor_id;sensor_type;location;lat;lon;timestamp;P1;durP1;ratioP1;P2;durP2;ratioP2
22211;SDS011;11275;52.488;13.462;2022-10-19T14:39:35;1.48;;;0.45;;
22211;SDS011;11275;52.488;13.462;2022-10-19T14:42:04;1.23;;;0.50;;
22211;SDS011;11275;52.488;13.462;2022-10-19T14:44:40;2.58;;;0.63;;
22211;SDS011;11275;52.488;13.462;2022-10-19T14:47:17;2.92;;;0.70;;
22211;SDS011;11275;52.488;13.462;2022-10-19T14:49:45;0.95;;;0.40;;
22211;SDS011;11275;52.488;13.462;2022-10-19T14:52:13;1.95;;;0.50;;
22211;SDS011;11275;52.488;13.462;2022-10-19T14:54:44;0.88;;;0.40;;
22211;SDS011;11275;52.488;13.462;2022-10-19T15:00:05;1.77;;;0.47;;
22211;SDS011;11275;52.488;13.462;2022-10-19T15:02:39;1.00;;;0.40;;
22211;SDS011;11275;52.488;13.462;2022-10-19T15:05:17;2.30;;;0.50;;
22211;SDS011;11275;52.488;13.462;2022-10-19T15:07:45;3.15;;;0.60;;
22211;SDS011;11275;52.488;13.462;2022-10-19T15:10:19;3.33;;;0.65;;
22211;SDS011;11275;52.488;13.462;2022-10-19T15:12:51;4.97;;;0.50;;
22211;SDS011;11275;52.488;13.462;2022-10-19T15:15:22;1.67;;;0.47;;
22211;SDS011;11275;52.488;13.462;2022-10-19T15:17:54;2.05;;;0.73;;
22211;SDS011;11275;52.488;13.462;2022-10-19T15:20:28;2.47;;;0.50;;
22211;SDS011;11275;52.488;13.462;2022-10-19T15:22:56;1.70;;;0.80;;
22211;SDS011;11275;52.488;13.462;2022-10-19T15:25:24;1.77;;;0.40;;
22211;SDS011;11275;52.488;13.462;2022-10-19T15:27:52;1.95;;;0.73;;
22211;SDS011;11275;52.488;13.462;2022-10-19T15:32:46;1.45;;;0.50;;
22211;SDS011;11275;52.488;13.462;2022-10-19T15:37:59;1.77;;;0.50;;
22211;SDS011;11275;52.488;13.462;2022-10-19T15:40:32;2.22;;;0.77;;
22211;SDS011;11275;52.488;13.462;2022-10-19T15:42:59;2.22;;;0.60;;
22211;SDS011;11275;52.488;13.462;2022-10-19T15:45:29;2.92;;;0.55;;
22211;SDS011;11275;52.488;13.462;2022-10-19T15:50:45;2.20;;;0.65;;
22211;SDS011;11275;52.488;13.462;2022-10-19T15:53:12;3.95;;;0.85;;
22211;SDS011;11275;52.488;13.462;2022-10-19T15:55:38;2.70;;;0.70;;
22211;SDS011;11275;52.488;13.462;2022-10-19T15:58:04;2.95;;;0.80;;
22211;SDS011;11275;52.488;13.462;2022-10-19T16:00:30;3.53;;;1.00;;
22211;SDS011;11275;52.488;13.462;2022-10-19T16:02:56;3.70;;;0.65;;
22211;SDS011;11275;52.488;13.462;2022-10-19T16:05:22;3.10;;;0.82;;
22211;SDS011;11275;52.488;13.462;2022-10-19T16:07:48;4.30;;;0.95;;
22211;SDS011;11275;52.488;13.462;2022-10-19T16:10:15;4.95;;;1.15;;
22211;SDS011;11275;52.488;13.462;2022-10-19T16:12:42;3.35;;;0.73;;
22211;SDS011;11275;52.488;13.462;2022-10-19T16:15:11;3.95;;;0.73;;
22211;SDS011;11275;52.488;13.462;2022-10-19T16:17:46;4.72;;;0.80;;
22211;SDS011;11275;52.488;13.462;2022-10-19T16:20:13;3.80;;;0.70;;
22211;SDS011;11275;52.488;13.462;2022-10-19T16:22:39;1.80;;;0.50;;
22211;SDS011;11275;52.488;13.462;2022-10-19T16:25:05;3.95;;;1.33;;
22211;SDS011;11275;52.488;13.462;2022-10-19T16:27:31;3.88;;;0.93;;
22211;SDS011;11275;52.488;13.462;2022-10-19T16:29:56;3.63;;;0.90;;
22211;SDS011;11275;52.488;13.462;2022-10-19T16:32:22;4.78;;;0.80;;
22211;SDS011;11275;52.488;13.462;2022-10-19T16:34:47;2.95;;;0.85;;
22211;SDS011;11275;52.488;13.462;2022-10-19T16:37:13;4.72;;;1.20;;
22211;SDS011;11275;52.488;13.462;2022-10-19T16:39:38;6.63;;;0.95;;
22211;SDS011;11275;52.488;13.462;2022-10-19T16:42:04;1.70;;;0.88;;
22211;SDS011;11275;52.488;13.462;2022-10-19T16:44:30;2.42;;;0.68;;
22211;SDS011;11275;52.488;13.462;2022-10-19T16:46:55;2.38;;;0.98;;
22211;SDS011;11275;52.488;13.462;2022-10-19T16:49:21;4.82;;;1.13;;
22211;SDS011;11275;52.488;13.462;2022-10-19T16:51:47;2.47;;;0.75;;
22211;SDS011;11275;52.488;13.462;2022-10-19T16:54:13;5.50;;;1.75;;
22211;SDS011;11275;52.488;13.462;2022-10-19T16:56:43;3.85;;;0.90;;
22211;SDS011;11275;52.488;13.462;2022-10-19T17:01:38;4.65;;;1.30;;
22211;SDS011;11275;52.488;13.462;2022-10-19T17:04:04;4.82;;;1.08;;
22211;SDS011;11275;52.488;13.462;2022-10-19T17:06:31;3.95;;;1.08;;
22211;SDS011;11275;52.488;13.462;2022-10-19T17:08:57;2.78;;;0.70;;
22211;SDS011;11275;52.488;13.462;2022-10-19T17:13:54;1.80;;;0.80;;
22211;SDS011;11275;52.488;13.462;2022-10-19T17:16:22;6.38;;;1.08;;
22211;SDS011;11275;52.488;13.462;2022-10-19T17:18:49;5.55;;;1.10;;
22211;SDS011;11275;52.488;13.462;2022-10-19T17:21:18;4.95;;;1.05;;
22211;SDS011;11275;52.488;13.462;2022-10-19T17:23:45;2.90;;;0.90;;
22211;SDS011;11275;52.488;13.462;2022-10-19T17:26:11;2.85;;;1.10;;
22211;SDS011;11275;52.488;13.462;2022-10-19T17:28:38;3.47;;;1.10;;
22211;SDS011;11275;52.488;13.462;2022-10-19T17:31:08;2.88;;;1.00;;
22211;SDS011;11275;52.488;13.462;2022-10-19T17:33:35;4.10;;;1.15;;
22211;SDS011;11275;52.488;13.462;2022-10-19T17:36:11;3.05;;;0.90;;
22211;SDS011;11275;52.488;13.462;2022-10-19T17:38:39;1.55;;;0.80;;
22211;SDS011;11275;52.488;13.462;2022-10-19T17:41:09;3.38;;;0.90;;
22211;SDS011;11275;52.488;13.462;2022-10-19T17:43:37;2.55;;;1.05;;
22211;SDS011;11275;52.488;13.462;2022-10-19T17:46:08;2.30;;;1.05;;
22211;SDS011;11275;52.488;13.462;2022-10-19T17:48:35;2.25;;;1.20;;
22211;SDS011;11275;52.488;13.462;2022-10-19T17:51:03;2.22;;;1.30;;
22211;SDS011;11275;52.488;13.462;2022-10-19T17:53:35;2.20;;;1.20;;
22211;SDS011;11275;52.488;13.462;2022-10-19T17:56:01;2.63;;;1.00;;
22211;SDS011;11275;52.488;13.462;2022-10-19T17:58:29;2.30;;;1.10;;
22211;SDS011;11275;52.488;13.462;2022-10-19T18:00:56;3.58;;;1.30;;
22211;SDS011;11275;52.488;13.462;2022-10-19T18:03:43;5.75;;;1.48;;
22211;SDS011;11275;52.488;13.462;2022-10-19T18:06:10;4.88;;;1.20;;
22211;SDS011;11275;52.488;13.462;2022-10-19T18:08:46;4.50;;;1.40;;
22211;SDS011;11275;52.488;13.462;2022-10-19T18:11:22;3.00;;;1.40;;
22211;SDS011;11275;52.488;13.462;2022-10-19T18:14:06;3.25;;;1.50;;
22211;SDS011;11275;52.488;13.462;2022-10-19T18:16:51;4.47;;;1.58;;
22211;SDS011;11275;52.488;13.462;2022-10-19T18:19:31;4.88;;;1.67;;
22211;SDS011;11275;52.488;13.462;2022-10-19T18:22:05;3.83;;;1.67;;
22211;SDS011;11275;52.488;13.462;2022-10-19T18:24:55;5.10;;;1.85;;
22211;SDS011;11275;52.488;13.462;2022-10-19T18:28:00;4.97;;;1.70;;
22211;SDS011;11275;52.488;13.462;2022-10-19T18:30:38;4.30;;;1.65;;
22211;SDS011;11275;52.488;13.462;2022-10-19T18:33:23;4.22;;;1.98;;
22211;SDS011;11275;52.488;13.462;2022-10-19T18:36:00;5.38;;;2.50;;
22211;SDS011;11275;52.488;13.462;2022-10-19T18:39:03;7.10;;;2.58;;
22211;SDS011;11275;52.488;13.462;2022-10-19T18:41:50;5.80;;;2.35;;
22211;SDS011;11275;52.488;13.462;2022-10-19T18:44:57;3.88;;;1.75;;
22211;SDS011;11275;52.488;13.462;2022-10-19T18:47:48;3.17;;;1.52;;
22211;SDS011;11275;52.488;13.462;2022-10-19T18:50:47;4.97;;;1.92;;
22211;SDS011;11275;52.488;13.462;2022-10-19T18:53:42;4.80;;;1.70;;
22211;SDS011;11275;52.488;13.462;2022-10-19T18:56:12;3.05;;;2.00;;
22211;SDS011;11275;52.488;13.462;2022-10-19T18:59:01;5.10;;;1.90;;
22211;SDS011;11275;52.488;13.462;2022-10-19T19:01:42;3.10;;;1.70;;
22211;SDS011;11275;52.488;13.462;2022-10-19T19:04:39;3.97;;;1.83;;
22211;SDS011;11275;52.488;13.462;2022-10-19T19:07:49;3.47;;;2.08;;
22211;SDS011;11275;52.488;13.462;2022-10-19T19:10:39;4.03;;;1.73;;
22211;SDS011;11275;52.488;13.462;2022-10-19T19:13:10;3.35;;;1.70;;
22211;SDS011;11275;52.488;13.462;2022-10-19T19:15:39;4.85;;;1.52;;
22211;SDS011;11275;52.488;13.462;2022-10-19T19:18:05;5.85;;;1.73;;
22211;SDS011;11275;52.488;13.462;2022-10-19T19:20:31;3.22;;;1.63;;
22211;SDS011;11275;52.488;13.462;2022-10-19T19:22:57;4.95;;;1.90;;
22211;SDS011;11275;52.488;13.462;2022-10-19T19:25:23;3.45;;;1.70;;
22211;SDS011;11275;52.488;13.462;2022-10-19T19:27:48;2.75;;;1.70;;
22211;SDS011;11275;52.488;13.462;2022-10-19T19:30:14;3.58;;;1.92;;
22211;SDS011;11275;52.488;13.462;2022-10-19T19:32:40;4.93;;;1.98;;
22211;SDS011;11275;52.488;13.462;2022-10-19T19:35:06;4.80;;;1.80;;
22211;SDS011;11275;52.488;13.462;2022-10-19T19:37:34;7.38;;;1.90;;
22211;SDS011;11275;52.488;13.462;2022-10-19T19:40:02;2.17;;;1.40;;
22211;SDS011;11275;52.488;13.462;2022-10-19T19:42:30;3.08;;;1.60;;
22211;SDS011;11275;52.488;13.462;2022-10-19T19:44:56;5.63;;;1.60;;
22211;SDS011;11275;52.488;13.462;2022-10-19T19:47:21;3.45;;;1.73;;
22211;SDS011;11275;52.488;13.462;2022-10-19T19:49:50;3.30;;;1.40;;
22211;SDS011;11275;52.488;13.462;2022-10-19T19:52:18;2.78;;;1.60;;
22211;SDS011;11275;52.488;13.462;2022-10-19T19:54:44;3.00;;;1.58;;
22211;SDS011;11275;52.488;13.462;2022-10-19T19:57:09;3.67;;;1.42;;
22211;SDS011;11275;52.488;13.462;2022-10-19T19:59:38;1.65;;;1.20;;
22211;SDS011;11275;52.488;13.462;2022-10-19T20:02:07;2.13;;;1.10;;
22211;SDS011;11275;52.488;13.462;2022-10-19T20:07:02;2.13;;;1.02;;
22211;SDS011;11275;52.488;13.462;2022-10-19T20:09:28;2.67;;;1.30;;
22211;SDS011;11275;52.488;13.462;2022-10-19T20:11:54;1.80;;;1.10;;
22211;SDS011;11275;52.488;13.462;2022-10-19T20:14:19;1.35;;;1.20;;
22211;SDS011;11275;52.488;13.462;2022-10-19T20:16:45;2.45;;;0.95;;
22211;SDS011;11275;52.488;13.462;2022-10-19T20:19:11;3.67;;;1.70;;
22211;SDS011;11275;52.488;13.462;2022-10-19T20:21:38;2.95;;;1.25;;
22211;SDS011;11275;52.488;13.462;2022-10-19T20:24:05;2.25;;;1.30;;
22211;SDS011;11275;52.488;13.462;2022-10-19T20:26:31;4.32;;;1.25;;
22211;SDS011;11275;52.488;13.462;2022-10-19T20:28:57;1.70;;;1.15;;
22211;SDS011;11275;52.488;13.462;2022-10-19T20:31:24;2.67;;;1.52;;
22211;SDS011;11275;52.488;13.462;2022-10-19T20:33:50;2.35;;;1.20;;
22211;SDS011;11275;52.488;13.462;2022-10-19T20:36:17;1.92;;;1.23;;
22211;SDS011;11275;52.488;13.462;2022-10-19T20:38:46;2.85;;;1.35;;
22211;SDS011;11275;52.488;13.462;2022-10-19T20:41:13;2.20;;;1.30;;
22211;SDS011;11275;52.488;13.462;2022-10-19T20:43:39;2.88;;;1.70;;
22211;SDS011;11275;52.488;13.462;2022-10-19T20:49:01;2.90;;;1.60;;
22211;SDS011;11275;52.488;13.462;2022-10-19T20:51:30;3.53;;;1.63;;
22211;SDS011;11275;52.488;13.462;2022-10-19T20:53:57;3.83;;;2.00;;
22211;SDS011;11275;52.488;13.462;2022-10-19T20:56:25;3.20;;;1.75;;
22211;SDS011;11275;52.488;13.462;2022-10-19T20:58:53;4.45;;;2.17;;
22211;SDS011;11275;52.488;13.462;2022-10-19T21:01:19;3.80;;;1.80;;
22211;SDS011;11275;52.488;13.462;2022-10-19T21:03:49;4.05;;;1.90;;
22211;SDS011;11275;52.488;13.462;2022-10-19T21:06:20;3.58;;;1.83;;
22211;SDS011;11275;52.488;13.462;2022-10-19T21:08:47;4.65;;;1.95;;
22211;SDS011;11275;52.488;13.462;2022-10-19T21:11:14;4.97;;;2.25;;
22211;SDS011;11275;52.488;13.462;2022-10-19T21:13:41;5.68;;;2.30;;
22211;SDS011;11275;52.488;13.462;2022-10-19T21:16:08;3.58;;;2.00;;
22211;SDS011;11275;52.488;13.462;2022-10-19T21:18:35;5.88;;;2.03;;
22211;SDS011;11275;52.488;13.462;2022-10-19T21:21:08;3.08;;;2.15;;
22211;SDS011;11275;52.488;13.462;2022-10-19T21:23:38;6.75;;;2.83;;
22211;SDS011;11275;52.488;13.462;2022-10-19T21:26:04;5.07;;;2.38;;
22211;SDS011;11275;52.488;13.462;2022-10-19T21:28:29;4.55;;;2.72;;
22211;SDS011;11275;52.488;13.462;2022-10-19T21:30:55;5.53;;;2.60;;
22211;SDS011;11275;52.488;13.462;2022-10-19T21:33:23;5.30;;;2.97;;
22211;SDS011;11275;52.488;13.462;2022-10-19T21:35:49;4.57;;;2.55;;
22211;SDS011;11275;52.488;13.462;2022-10-19T21:38:15;5.10;;;2.80;;
22211;SDS011;11275;52.488;13.462;2022-10-19T21:40:40;3.50;;;2.65;;
22211;SDS011;11275;52.488;13.462;2022-10-19T21:43:06;3.90;;;2.67;;
22211;SDS011;11275;52.488;13.462;2022-10-19T21:45:36;4.25;;;2.95;;
22211;SDS011;11275;52.488;13.462;2022-10-19T21:48:02;5.05;;;2.92;;
22211;SDS011;11275;52.488;13.462;2022-10-19T21:50:27;4.30;;;3.03;;
22211;SDS011;11275;52.488;13.462;2022-10-19T21:52:53;4.85;;;2.58;;
22211;SDS011;11275;52.488;13.462;2022-10-19T21:55:18;5.10;;;2.92;;
22211;SDS011;11275;52.488;13.462;2022-10-19T21:57:44;4.25;;;2.70;;
22211;SDS011;11275;52.488;13.462;2022-10-19T22:00:13;3.25;;;2.72;;
22211;SDS011;11275;52.488;13.462;2022-10-19T22:02:42;4.32;;;2.22;;
22211;SDS011;11275;52.488;13.462;2022-10-19T22:05:07;5.00;;;2.70;;
22211;SDS011;11275;52.488;13.462;2022-10-19T22:07:33;9.13;;;2.90;;
22211;SDS011;11275;52.488;13.462;2022-10-19T22:09:59;6.93;;;2.80;;
22211;SDS011;11275;52.488;13.462;2022-10-19T22:12:33;3.70;;;2.63;;
22211;SDS011;11275;52.488;13.462;2022-10-19T22:14:58;5.70;;;2.67;;
22211;SDS011;11275;52.488;13.462;2022-10-19T22:17:24;5.25;;;2.55;;
22211;SDS011;11275;52.488;13.462;2022-10-19T22:19:50;3.72;;;2.65;;
22211;SDS011;11275;52.488;13.462;2022-10-19T22:22:15;3.47;;;2.65;;
22211;SDS011;11275;52.488;13.462;2022-10-19T22:24:41;3.05;;;2.30;;
22211;SDS011;11275;52.488;13.462;2022-10-19T22:27:06;3.42;;;2.75;;
22211;SDS011;11275;52.488;13.462;2022-10-19T22:29:32;5.40;;;2.53;;
22211;SDS011;11275;52.488;13.462;2022-10-19T22:31:58;3.90;;;2.58;;
22211;SDS011;11275;52.488;13.462;2022-10-19T22:34:23;5.10;;;2.80;;
22211;SDS011;11275;52.488;13.462;2022-10-19T22:36:49;3.63;;;2.80;;
22211;SDS011;11275;52.488;13.462;2022-10-19T22:39:14;4.05;;;2.70;;
22211;SDS011;11275;52.488;13.462;2022-10-19T22:41:40;3.35;;;2.60;;
22211;SDS011;11275;52.488;13.462;2022-10-19T22:44:06;6.00;;;2.88;;
22211;SDS011;11275;52.488;13.462;2022-10-19T22:46:32;3.25;;;2.50;;
22211;SDS011;11275;52.488;13.462;2022-10-19T22:48:57;4.20;;;3.08;;
22211;SDS011;11275;52.488;13.462;2022-10-19T22:51:23;4.25;;;2.60;;
22211;SDS011;11275;52.488;13.462;2022-10-19T22:53:48;2.90;;;2.13;;
22211;SDS011;11275;52.488;13.462;2022-10-19T22:56:14;6.10;;;2.85;;
22211;SDS011;11275;52.488;13.462;2022-10-19T22:58:40;3.97;;;2.80;;
22211;SDS011;11275;52.488;13.462;2022-10-19T23:01:06;4.15;;;2.60;;
22211;SDS011;11275;52.488;13.462;2022-10-19T23:03:34;3.90;;;2.45;;
22211;SDS011;11275;52.488;13.462;2022-10-19T23:06:00;4.30;;;2.58;;
22211;SDS011;11275;52.488;13.462;2022-10-19T23:08:25;3.40;;;2.22;;
22211;SDS011;11275;52.488;13.462;2022-10-19T23:10:51;3.90;;;2.40;;
22211;SDS011;11275;52.488;13.462;2022-10-19T23:13:17;4.93;;;2.30;;
22211;SDS011;11275;52.488;13.462;2022-10-19T23:15:43;5.75;;;2.20;;
22211;SDS011;11275;52.488;13.462;2022-10-19T23:18:09;3.58;;;2.30;;
22211;SDS011;11275;52.488;13.462;2022-10-19T23:20:35;3.25;;;2.10;;
22211;SDS011;11275;52.488;13.462;2022-10-19T23:23:01;4.75;;;2.42;;
22211;SDS011;11275;52.488;13.462;2022-10-19T23:25:26;3.63;;;2.40;;
22211;SDS011;11275;52.488;13.462;2022-10-19T23:27:52;3.35;;;2.33;;
22211;SDS011;11275;52.488;13.462;2022-10-19T23:30:17;3.03;;;2.00;;
22211;SDS011;11275;52.488;13.462;2022-10-19T23:32:43;6.85;;;2.50;;
22211;SDS011;11275;52.488;13.462;2022-10-19T23:35:08;4.10;;;2.38;;
22211;SDS011;11275;52.488;13.462;2022-10-19T23:37:34;3.83;;;2.28;;
22211;SDS011;11275;52.488;13.462;2022-10-19T23:40:00;3.45;;;2.42;;
22211;SDS011;11275;52.488;13.462;2022-10-19T23:42:26;3.50;;;2.33;;
22211;SDS011;11275;52.488;13.462;2022-10-19T23:44:52;3.03;;;2.28;;
22211;SDS011;11275;52.488;13.462;2022-10-19T23:47:17;3.58;;;2.15;;
22211;SDS011;11275;52.488;13.462;2022-10-19T23:49:43;3.33;;;2.30;;
22211;SDS011;11275;52.488;13.462;2022-10-19T23:52:09;3.13;;;2.05;;
22211;SDS011;11275;52.488;13.462;2022-10-19T23:57:10;3.58;;;2.20;;
22211;SDS011;11275;52.488;13.462;2022-10-19T23:59:36;6.07;;;2.40;;
